Copper City, Michigan
Current Conditions -  °F | °C
As of 9:53 AM on Friday 19 Dec 2014 (Local Time) from KCMX Reporting Station
Overcast Overcast  
Wind Chill: 20°   Ceiling: 2100
Heat Index: 20°   Visibility: 10mi
Dew Point: 17°   Wind: 3mph
Humidity: 89%   Direction: 290°WNW
Pressure: 30.27"   Gusts: NA
Location:  47.28°N, 88.39°W
Report Text: KCMX 191453Z AUTO 29003KT 10SM OVC021 M07/M08 A3027 RMK AO2 SLP275 T10671083 53005
Loading
Personal Weather Stations






























Interactive Weather Map New forecast layout! Learn more

10-Day Weather Forecast

Advertisements
Track Severe Weather on mobile